createdAt,value
2023-05-10T00:02:14.960Z,12.44
2023-05-10T00:04:42.693Z,12.45
2023-05-10T00:07:11.380Z,12.62
2023-05-10T00:09:38.918Z,12.48
2023-05-10T00:12:06.894Z,12.32
2023-05-10T00:14:34.562Z,12.20
2023-05-10T00:17:02.442Z,12.17
2023-05-10T00:19:30.167Z,12.14
2023-05-10T00:21:57.849Z,12.06
2023-05-10T00:24:26.183Z,12.20
2023-05-10T00:26:53.702Z,12.28
2023-05-10T00:29:21.498Z,12.34
2023-05-10T00:31:49.310Z,12.16
2023-05-10T00:34:16.966Z,12.37
2023-05-10T00:36:44.551Z,12.21
2023-05-10T00:39:12.280Z,12.07
2023-05-10T00:41:40.187Z,12.10
2023-05-10T00:44:08.391Z,12.08
2023-05-10T00:46:37.201Z,12.10
2023-05-10T00:49:05.421Z,12.11
2023-05-10T00:51:33.863Z,12.04
2023-05-10T00:54:01.675Z,12.07
2023-05-10T00:56:30.779Z,12.09
2023-05-10T00:58:58.880Z,12.01
2023-05-10T01:01:26.868Z,11.92
2023-05-10T01:03:55.526Z,11.90
2023-05-10T01:06:23.312Z,11.91
2023-05-10T01:08:51.737Z,11.97
2023-05-10T01:11:19.437Z,11.96
2023-05-10T01:13:57.016Z,12.07
2023-05-10T01:16:26.432Z,12.06
2023-05-10T01:18:55.005Z,11.96
2023-05-10T01:22:02.812Z,12.03
2023-05-10T01:25:05.130Z,11.92
2023-05-10T01:28:00.129Z,11.86
2023-05-10T01:30:52.314Z,11.95
2023-05-10T01:33:37.224Z,11.86
2023-05-10T01:36:19.157Z,11.91
2023-05-10T01:39:11.867Z,11.99
2023-05-10T01:41:45.064Z,11.98
2023-05-10T01:44:25.863Z,11.95
2023-05-10T01:47:18.570Z,11.91
2023-05-10T01:49:53.452Z,11.81
2023-05-10T01:52:28.327Z,11.86
2023-05-10T01:55:08.857Z,11.87
2023-05-10T01:57:40.725Z,11.97
2023-05-10T02:00:10.556Z,11.93
2023-05-10T02:02:51.557Z,11.95
2023-05-10T02:05:21.689Z,12.02
2023-05-10T02:07:50.490Z,11.99
2023-05-10T02:10:22.251Z,11.97
2023-05-10T02:12:51.893Z,12.06
2023-05-10T02:15:25.833Z,11.88
2023-05-10T02:17:56.805Z,11.87
2023-05-10T02:20:28.973Z,11.82
2023-05-10T02:22:58.848Z,11.93
2023-05-10T02:25:27.861Z,11.88
2023-05-10T02:27:58.073Z,11.84
2023-05-10T02:30:30.401Z,11.80
2023-05-10T02:35:29.333Z,11.81
2023-05-10T02:38:00.008Z,11.82
2023-05-10T02:40:31.622Z,11.80
2023-05-10T02:43:01.230Z,11.75
2023-05-10T02:45:33.118Z,11.76
2023-05-10T02:48:01.706Z,11.72
2023-05-10T02:50:35.228Z,11.68
2023-05-10T02:53:13.233Z,11.75
2023-05-10T02:55:44.043Z,11.73
2023-05-10T02:58:11.805Z,11.70
2023-05-10T03:00:39.539Z,11.71
2023-05-10T03:03:07.915Z,11.77
2023-05-10T03:05:35.616Z,11.69
2023-05-10T03:08:05.816Z,11.64
2023-05-10T03:10:40.390Z,11.70
2023-05-10T03:13:14.349Z,11.76
2023-05-10T03:16:13.651Z,11.66
2023-05-10T03:18:52.136Z,11.71
2023-05-10T03:21:22.960Z,11.64
2023-05-10T03:24:13.058Z,11.64
2023-05-10T03:26:42.648Z,11.84
2023-05-10T03:29:16.813Z,11.82
2023-05-10T03:31:44.966Z,11.74
2023-05-10T03:34:12.955Z,11.89
2023-05-10T03:36:40.504Z,12.00
2023-05-10T03:39:08.055Z,12.09
2023-05-10T03:41:35.717Z,12.09
2023-05-10T03:44:03.446Z,12.16
2023-05-10T03:46:31.201Z,12.14
2023-05-10T03:48:59.305Z,12.13
2023-05-10T03:51:29.285Z,12.13
2023-05-10T03:53:56.869Z,12.13
2023-05-10T03:56:24.796Z,12.11
2023-05-10T03:58:52.719Z,12.22
2023-05-10T04:01:20.312Z,12.24
2023-05-10T04:03:48.198Z,12.40
2023-05-10T04:06:16.253Z,12.38
2023-05-10T04:08:43.862Z,12.37
2023-05-10T04:11:14.787Z,12.36
2023-05-10T04:13:42.468Z,12.48
2023-05-10T04:16:10.327Z,12.52
2023-05-10T04:18:37.984Z,12.57
2023-05-10T04:21:06.509Z,12.64
2023-05-10T04:23:34.162Z,12.72
2023-05-10T04:26:03.044Z,12.73
2023-05-10T04:28:30.719Z,12.74
2023-05-10T04:31:11.014Z,12.78
2023-05-10T04:33:39.255Z,12.81
2023-05-10T04:36:07.583Z,12.79
2023-05-10T04:38:35.340Z,12.84
2023-05-10T04:41:10.512Z,12.97
2023-05-10T04:43:39.345Z,12.99
2023-05-10T04:46:08.576Z,12.97
2023-05-10T04:48:36.263Z,13.15
2023-05-10T04:51:05.105Z,13.23
2023-05-10T04:53:33.158Z,13.26
2023-05-10T04:56:00.741Z,13.21
2023-05-10T04:58:28.304Z,13.25
2023-05-10T05:00:55.933Z,13.37
2023-05-10T05:03:23.609Z,13.36
2023-05-10T05:05:51.283Z,13.43
2023-05-10T05:08:18.813Z,13.50
2023-05-10T05:10:46.436Z,13.44
2023-05-10T05:13:14.672Z,13.54
2023-05-10T05:15:42.346Z,13.49
2023-05-10T05:18:09.897Z,13.41
2023-05-10T05:20:37.471Z,13.24
2023-05-10T05:23:05.079Z,13.31
2023-05-10T05:25:35.813Z,13.44
2023-05-10T05:28:03.418Z,13.62
2023-05-10T05:30:30.982Z,13.80
2023-05-10T05:32:58.539Z,13.97
2023-05-10T05:35:26.390Z,13.82
2023-05-10T05:37:53.876Z,13.88
2023-05-10T05:40:21.568Z,13.91
2023-05-10T05:42:49.218Z,13.77
2023-05-10T05:45:17.084Z,13.89
2023-05-10T05:47:44.964Z,13.92
2023-05-10T05:50:12.859Z,13.94
2023-05-10T05:52:40.610Z,13.81
2023-05-10T05:55:08.475Z,13.70
2023-05-10T05:57:36.084Z,13.77
2023-05-10T06:00:04.195Z,14.00
2023-05-10T06:02:43.007Z,14.09
2023-05-10T06:05:10.796Z,14.12
2023-05-10T06:07:38.397Z,13.91
2023-05-10T06:10:06.883Z,14.03
2023-05-10T06:12:34.434Z,14.11
2023-05-10T06:15:02.044Z,14.14
2023-05-10T06:17:29.856Z,14.19
2023-05-10T06:19:58.099Z,14.28
2023-05-10T06:22:25.684Z,14.31
2023-05-10T06:24:53.138Z,14.52
2023-05-10T06:27:20.757Z,14.75
2023-05-10T06:29:49.249Z,14.70
2023-05-10T06:32:18.454Z,14.94
2023-05-10T06:34:46.096Z,14.92
2023-05-10T06:37:13.845Z,14.86
2023-05-10T06:39:41.458Z,15.05
2023-05-10T06:42:08.985Z,15.07
2023-05-10T06:44:36.634Z,15.05
2023-05-10T06:47:04.227Z,15.23
2023-05-10T06:49:31.951Z,15.34
2023-05-10T06:51:59.532Z,15.17
2023-05-10T06:54:27.070Z,14.83
2023-05-10T06:56:55.042Z,14.99
2023-05-10T06:59:23.677Z,14.87
2023-05-10T07:01:51.512Z,14.90
2023-05-10T07:04:19.155Z,14.99
2023-05-10T07:06:47.461Z,14.93
2023-05-10T07:09:15.133Z,14.64
2023-05-10T07:11:42.661Z,14.78
2023-05-10T07:14:10.696Z,14.95
2023-05-10T07:16:38.319Z,15.02
2023-05-10T07:19:07.648Z,15.00
2023-05-10T07:21:36.631Z,14.86
2023-05-10T07:24:04.596Z,14.94
2023-05-10T07:26:32.158Z,15.17
2023-05-10T07:28:59.764Z,15.23
2023-05-10T07:31:27.334Z,15.19
2023-05-10T07:33:55.118Z,15.42
2023-05-10T07:36:22.612Z,15.40
2023-05-10T07:38:50.635Z,15.24
2023-05-10T07:41:18.436Z,15.16
2023-05-10T07:43:45.946Z,15.41
2023-05-10T07:46:14.530Z,15.45
2023-05-10T07:48:42.470Z,15.42
2023-05-10T07:51:10.530Z,15.25
2023-05-10T07:53:38.501Z,15.40
2023-05-10T07:56:30.651Z,15.66
2023-05-10T07:58:58.906Z,15.79
2023-05-10T08:01:27.749Z,15.59
2023-05-10T08:03:55.993Z,15.44
2023-05-10T08:06:23.623Z,15.56
2023-05-10T08:08:51.781Z,15.65
2023-05-10T08:11:21.558Z,15.97
2023-05-10T08:13:50.606Z,16.29
2023-05-10T08:16:18.985Z,16.05
2023-05-10T08:18:48.321Z,16.12
2023-05-10T08:21:16.958Z,16.59
2023-05-10T08:23:47.304Z,16.72
2023-05-10T08:26:14.936Z,16.58
2023-05-10T08:28:42.494Z,16.48
2023-05-10T08:31:10.185Z,16.71
2023-05-10T08:33:37.972Z,16.85
2023-05-10T08:36:06.188Z,16.73
2023-05-10T08:38:33.807Z,17.07
2023-05-10T08:41:03.826Z,16.88
2023-05-10T08:43:32.265Z,16.74
2023-05-10T08:46:04.138Z,16.63
2023-05-10T08:48:32.277Z,16.91
2023-05-10T08:51:03.060Z,17.10
2023-05-10T08:53:32.866Z,16.56
2023-05-10T08:56:02.805Z,16.61
2023-05-10T08:58:30.713Z,16.71
2023-05-10T09:00:59.684Z,16.96
2023-05-10T09:03:27.543Z,16.92
2023-05-10T09:05:56.918Z,17.03
2023-05-10T09:08:28.428Z,17.34
2023-05-10T09:10:59.145Z,17.54
2023-05-10T09:13:27.234Z,17.15
2023-05-10T09:15:54.924Z,17.48
2023-05-10T09:18:22.561Z,17.34
2023-05-10T09:20:51.028Z,17.25
2023-05-10T09:23:18.565Z,17.17
2023-05-10T09:25:46.180Z,17.42
2023-05-10T09:28:13.971Z,17.67
2023-05-10T09:30:41.559Z,17.86
2023-05-10T09:33:09.034Z,18.01
2023-05-10T09:35:37.145Z,17.78
2023-05-10T09:38:06.510Z,17.96
2023-05-10T09:40:34.005Z,18.13
2023-05-10T09:43:11.855Z,18.28
2023-05-10T09:45:39.569Z,18.29
2023-05-10T09:48:07.782Z,18.45
2023-05-10T09:50:35.619Z,18.58
2023-05-10T09:53:05.209Z,18.50
2023-05-10T09:55:46.006Z,18.73
2023-05-10T09:58:17.345Z,18.87
2023-05-10T10:00:48.884Z,18.51
2023-05-10T10:03:19.790Z,18.42
2023-05-10T10:05:49.930Z,18.72
2023-05-10T10:08:18.229Z,18.65
2023-05-10T10:10:47.125Z,18.53
2023-05-10T10:13:15.185Z,18.50
2023-05-10T10:15:45.710Z,18.89
2023-05-10T10:18:18.517Z,19.09
2023-05-10T10:20:47.164Z,18.77
2023-05-10T10:23:16.666Z,18.86
2023-05-10T10:25:48.819Z,19.23
2023-05-10T10:28:42.543Z,19.10
2023-05-10T10:31:43.248Z,18.99
2023-05-10T10:34:18.344Z,18.89
2023-05-10T10:36:48.940Z,18.61
2023-05-10T10:39:17.049Z,18.42
2023-05-10T10:41:58.599Z,18.09
2023-05-10T10:44:37.731Z,17.80
2023-05-10T10:47:24.126Z,17.84
2023-05-10T10:50:07.016Z,17.89
2023-05-10T10:52:39.327Z,17.87
2023-05-10T10:55:12.780Z,17.64
2023-05-10T10:57:53.160Z,17.58
2023-05-10T11:00:22.215Z,17.76
2023-05-10T11:02:54.970Z,17.83
2023-05-10T11:05:33.800Z,17.80
2023-05-10T11:08:07.603Z,18.10
2023-05-10T11:10:36.161Z,17.78
2023-05-10T11:13:05.080Z,17.59
2023-05-10T11:15:35.052Z,17.79
2023-05-10T11:18:20.344Z,18.02
2023-05-10T11:21:04.377Z,18.31
2023-05-10T11:23:34.153Z,18.68
2023-05-10T11:26:02.578Z,18.93
2023-05-10T11:28:30.102Z,18.58
2023-05-10T11:30:58.475Z,18.53
2023-05-10T11:33:26.024Z,18.78
2023-05-10T11:35:53.490Z,19.31
2023-05-10T11:38:21.012Z,19.50
2023-05-10T11:40:48.550Z,19.77
2023-05-10T11:43:16.255Z,19.73
2023-05-10T11:45:46.988Z,20.27
2023-05-10T11:48:14.535Z,20.32
2023-05-10T11:50:42.108Z,20.22
2023-05-10T11:53:09.602Z,20.09
2023-05-10T11:55:37.106Z,20.25
2023-05-10T11:58:04.665Z,20.08
2023-05-10T12:00:33.489Z,19.85
2023-05-10T12:03:02.969Z,19.65
2023-05-10T12:05:35.136Z,19.85
2023-05-10T12:08:16.416Z,19.67
2023-05-10T12:10:44.873Z,19.64
2023-05-10T12:13:16.443Z,19.12
2023-05-10T12:15:44.819Z,19.16
2023-05-10T12:18:15.020Z,19.17
2023-05-10T12:20:43.564Z,19.01
2023-05-10T12:23:12.318Z,18.94
2023-05-10T12:25:40.741Z,19.35
2023-05-10T12:28:10.775Z,19.82
2023-05-10T12:30:39.736Z,20.14
2023-05-10T12:33:19.043Z,20.70
2023-05-10T12:35:52.900Z,21.11
2023-05-10T12:38:44.225Z,21.32
2023-05-10T12:41:15.542Z,21.04
2023-05-10T12:43:43.499Z,20.83
2023-05-10T12:46:14.140Z,20.61
2023-05-10T12:48:44.580Z,20.29
2023-05-10T12:51:18.276Z,20.12
2023-05-10T12:53:49.395Z,20.04
2023-05-10T12:56:17.154Z,19.86
2023-05-10T12:58:49.220Z,20.10
2023-05-10T13:01:17.141Z,20.37
2023-05-10T13:03:44.890Z,20.37
2023-05-10T13:06:14.417Z,20.12
2023-05-10T13:08:41.832Z,20.01
2023-05-10T13:11:09.317Z,19.94
2023-05-10T13:13:37.106Z,19.98
2023-05-10T13:16:04.946Z,20.09
2023-05-10T13:18:32.544Z,20.13
2023-05-10T13:21:00.275Z,20.10
2023-05-10T13:23:27.782Z,20.35
2023-05-10T13:25:55.251Z,20.15
2023-05-10T13:28:22.822Z,20.17
2023-05-10T13:30:50.238Z,19.70
2023-05-10T13:33:17.765Z,19.84
2023-05-10T13:35:46.267Z,19.82
2023-05-10T13:38:15.211Z,19.63
2023-05-10T13:40:42.787Z,19.74
2023-05-10T13:43:10.211Z,19.72
2023-05-10T13:45:37.855Z,19.81
2023-05-10T13:48:05.800Z,20.05
2023-05-10T13:50:33.285Z,20.34
2023-05-10T13:53:01.324Z,20.53
2023-05-10T13:55:29.812Z,20.14
2023-05-10T13:57:57.312Z,19.78
2023-05-10T14:00:24.946Z,19.84
2023-05-10T14:02:52.760Z,20.01
2023-05-10T14:05:25.398Z,20.32
2023-05-10T14:07:54.990Z,20.14
2023-05-10T14:10:22.718Z,20.46
2023-05-10T14:12:51.111Z,20.48
2023-05-10T14:15:19.318Z,21.19
2023-05-10T14:17:46.965Z,21.24
2023-05-10T14:20:14.505Z,21.24
2023-05-10T14:22:42.016Z,21.43
2023-05-10T14:25:10.309Z,21.47
2023-05-10T14:27:39.224Z,21.05
2023-05-10T14:30:07.746Z,21.09
2023-05-10T14:32:37.620Z,21.34
2023-05-10T14:35:07.065Z,21.62
2023-05-10T14:37:35.600Z,21.70
2023-05-10T14:40:05.460Z,21.31
2023-05-10T14:42:33.272Z,21.41
2023-05-10T14:45:00.797Z,21.70
2023-05-10T14:47:28.330Z,22.07
2023-05-10T14:49:55.956Z,22.26
2023-05-10T14:52:23.616Z,21.90
2023-05-10T14:54:51.486Z,21.68
2023-05-10T14:57:19.237Z,21.84
2023-05-10T14:59:46.920Z,21.29
2023-05-10T15:02:14.830Z,21.00
2023-05-10T15:04:42.657Z,20.85
2023-05-10T15:07:10.864Z,20.94
2023-05-10T15:09:38.428Z,21.01
2023-05-10T15:12:06.202Z,21.16
2023-05-10T15:14:34.044Z,21.51
2023-05-10T15:17:01.661Z,21.80
2023-05-10T15:19:30.445Z,21.78
2023-05-10T15:21:57.995Z,21.49
2023-05-10T15:24:25.709Z,21.13
2023-05-10T15:26:53.212Z,20.88
2023-05-10T15:29:21.967Z,20.48
2023-05-10T15:31:50.540Z,20.30
2023-05-10T15:34:19.080Z,20.47
2023-05-10T15:36:47.137Z,20.18
2023-05-10T15:39:14.760Z,19.96
2023-05-10T15:41:42.315Z,20.00
2023-05-10T15:44:09.821Z,19.66
2023-05-10T15:46:38.940Z,19.56
2023-05-10T15:49:07.644Z,19.20
2023-05-10T15:51:36.657Z,19.07
2023-05-10T15:54:08.425Z,19.11
2023-05-10T15:56:36.633Z,18.98
2023-05-10T15:59:06.185Z,18.81
2023-05-10T16:01:33.875Z,18.82
2023-05-10T16:04:02.143Z,18.50
2023-05-10T16:06:29.770Z,18.61
2023-05-10T16:08:58.134Z,18.44
2023-05-10T16:11:26.354Z,18.46
2023-05-10T16:13:54.126Z,18.30
2023-05-10T16:16:24.434Z,18.24
2023-05-10T16:18:53.139Z,18.24
2023-05-10T16:21:20.940Z,18.02
2023-05-10T16:23:48.718Z,17.92
2023-05-10T16:26:16.196Z,17.93
2023-05-10T16:28:44.435Z,17.86
2023-05-10T16:31:13.952Z,17.69
2023-05-10T16:33:41.692Z,17.70
2023-05-10T16:36:10.752Z,17.71
2023-05-10T16:38:40.747Z,17.59
2023-05-10T16:41:08.450Z,17.68
2023-05-10T16:43:39.203Z,17.42
2023-05-10T16:46:28.861Z,17.48
2023-05-10T16:49:00.236Z,17.43
2023-05-10T16:51:31.215Z,17.43
2023-05-10T16:53:59.052Z,17.44
2023-05-10T16:56:28.358Z,17.45
2023-05-10T16:58:56.735Z,17.35
2023-05-10T17:01:27.146Z,17.24
2023-05-10T17:03:55.712Z,17.19
2023-05-10T17:06:23.670Z,17.05
2023-05-10T17:08:51.769Z,17.03
2023-05-10T17:11:21.912Z,17.00
2023-05-10T17:13:52.512Z,16.94
2023-05-10T17:16:21.518Z,16.89
2023-05-10T17:18:51.475Z,16.89
2023-05-10T17:21:19.608Z,16.90
2023-05-10T17:23:47.157Z,16.92
2023-05-10T17:26:15.938Z,16.94
2023-05-10T17:28:43.632Z,16.96
2023-05-10T17:31:11.850Z,16.87
2023-05-10T17:33:39.993Z,16.83
2023-05-10T17:36:08.522Z,16.72
2023-05-10T17:38:42.638Z,16.73
2023-05-10T17:41:15.828Z,16.66
2023-05-10T17:43:44.601Z,16.74
2023-05-10T17:46:13.399Z,16.82
2023-05-10T17:48:44.376Z,16.78
2023-05-10T17:51:13.696Z,16.73
2023-05-10T17:53:42.367Z,16.73
2023-05-10T17:56:11.758Z,16.66
2023-05-10T17:58:42.869Z,16.65
2023-05-10T18:01:17.004Z,16.60
2023-05-10T18:03:47.339Z,16.65
2023-05-10T18:06:16.999Z,16.66
2023-05-10T18:08:53.344Z,16.65
2023-05-10T18:11:24.449Z,16.65
2023-05-10T18:13:56.526Z,16.58
2023-05-10T18:16:24.353Z,16.55
2023-05-10T18:18:52.942Z,16.42
2023-05-10T18:21:23.514Z,16.39
2023-05-10T18:23:53.665Z,16.45
2023-05-10T18:26:22.432Z,16.47
2023-05-10T18:28:55.952Z,16.46
2023-05-10T18:31:24.063Z,16.42
2023-05-10T18:33:52.484Z,16.39
2023-05-10T18:36:20.382Z,16.34
2023-05-10T18:38:52.438Z,16.38
2023-05-10T18:41:20.140Z,16.33
2023-05-10T18:43:48.254Z,16.24
2023-05-10T18:46:16.526Z,16.04
2023-05-10T18:48:50.421Z,16.09
2023-05-10T18:51:19.269Z,16.19
2023-05-10T18:53:49.278Z,16.05
2023-05-10T18:56:19.865Z,16.04
2023-05-10T18:58:48.212Z,16.10
2023-05-10T19:01:20.363Z,15.99
2023-05-10T19:03:49.420Z,16.02
2023-05-10T19:06:17.058Z,15.88
2023-05-10T19:08:45.947Z,16.02
2023-05-10T19:11:13.732Z,15.75
2023-05-10T19:13:46.139Z,15.69
2023-05-10T19:16:24.335Z,15.75
2023-05-10T19:18:54.383Z,15.74
2023-05-10T19:21:25.803Z,15.76
2023-05-10T19:23:57.728Z,15.58
2023-05-10T19:26:27.901Z,15.40
2023-05-10T19:28:59.717Z,15.59
2023-05-10T19:31:28.818Z,15.39
2023-05-10T19:34:00.511Z,15.45
2023-05-10T19:36:28.517Z,15.37
2023-05-10T19:38:57.507Z,15.34
2023-05-10T19:41:27.595Z,15.39
2023-05-10T19:43:56.943Z,15.34
2023-05-10T19:46:26.041Z,15.12
2023-05-10T19:48:53.786Z,15.16
2023-05-10T19:51:22.699Z,15.07
2023-05-10T19:53:50.631Z,14.98
2023-05-10T19:56:18.525Z,15.03
2023-05-10T19:58:47.331Z,15.08
2023-05-10T20:01:15.076Z,15.11
2023-05-10T20:03:42.696Z,14.99
2023-05-10T20:06:12.462Z,15.04
2023-05-10T20:08:40.113Z,14.84
2023-05-10T20:11:08.121Z,15.14
2023-05-10T20:13:35.623Z,15.04
2023-05-10T20:16:05.183Z,14.94
2023-05-10T20:18:32.910Z,14.86
2023-05-10T20:21:01.922Z,14.91
2023-05-10T20:23:29.766Z,14.84
2023-05-10T20:25:58.828Z,14.77
2023-05-10T20:28:27.158Z,14.66
2023-05-10T20:30:56.502Z,14.56
2023-05-10T20:33:24.798Z,14.52
2023-05-10T20:35:52.494Z,14.53
2023-05-10T20:38:20.127Z,14.40
2023-05-10T20:40:49.066Z,14.37
2023-05-10T20:43:16.679Z,14.42
2023-05-10T20:45:44.374Z,14.34
2023-05-10T20:48:13.294Z,14.34
2023-05-10T20:50:44.565Z,14.36
2023-05-10T20:53:12.179Z,14.42
2023-05-10T20:55:39.931Z,14.42
2023-05-10T20:58:07.587Z,14.35
2023-05-10T21:00:35.276Z,14.26
2023-05-10T21:03:04.476Z,14.29
2023-05-10T21:05:32.339Z,14.32
2023-05-10T21:08:01.046Z,14.08
2023-05-10T21:10:30.126Z,14.03
2023-05-10T21:12:57.789Z,14.17
2023-05-10T21:15:26.026Z,14.31
2023-05-10T21:17:54.384Z,14.28
2023-05-10T21:20:23.476Z,14.27
2023-05-10T21:22:51.329Z,14.15
2023-05-10T21:25:19.006Z,14.09
2023-05-10T21:27:47.261Z,14.19
2023-05-10T21:30:15.215Z,14.16
2023-05-10T21:32:42.914Z,14.04
2023-05-10T21:35:10.792Z,14.05
2023-05-10T21:37:38.446Z,13.91
2023-05-10T21:40:06.786Z,13.95
2023-05-10T21:42:34.368Z,13.97
2023-05-10T21:45:02.084Z,13.99
2023-05-10T21:47:29.707Z,13.96
2023-05-10T21:49:57.454Z,13.97
2023-05-10T21:52:25.093Z,13.81
2023-05-10T21:54:52.920Z,13.77
2023-05-10T21:57:21.618Z,13.88
2023-05-10T21:59:49.192Z,13.81
2023-05-10T22:02:16.936Z,13.71
2023-05-10T22:04:44.532Z,13.47
2023-05-10T22:07:12.206Z,13.51
2023-05-10T22:09:39.864Z,13.43
2023-05-10T22:12:07.624Z,13.25
2023-05-10T22:14:35.454Z,13.34
2023-05-10T22:17:03.101Z,13.40
2023-05-10T22:19:30.750Z,13.43
2023-05-10T22:22:00.715Z,13.45
2023-05-10T22:24:28.515Z,13.54
2023-05-10T22:26:56.278Z,13.48
2023-05-10T22:29:24.756Z,13.46
2023-05-10T22:31:52.420Z,13.49
2023-05-10T22:34:20.830Z,13.45
2023-05-10T22:36:49.684Z,13.44
2023-05-10T22:39:20.369Z,13.44
2023-05-10T22:41:47.890Z,13.47
2023-05-10T22:44:15.489Z,13.41
2023-05-10T22:46:43.033Z,13.49
2023-05-10T22:49:11.196Z,13.40
2023-05-10T22:51:38.728Z,13.27
2023-05-10T22:54:07.272Z,13.27
2023-05-10T22:56:35.397Z,13.16
2023-05-10T22:59:03.137Z,13.06
2023-05-10T23:01:30.783Z,12.97
2023-05-10T23:03:58.446Z,12.98
2023-05-10T23:06:27.846Z,13.08
2023-05-10T23:08:56.197Z,13.04
2023-05-10T23:11:23.844Z,12.99
2023-05-10T23:13:52.005Z,13.07
2023-05-10T23:16:19.638Z,12.99
2023-05-10T23:18:47.252Z,12.88
2023-05-10T23:21:14.869Z,12.92
2023-05-10T23:23:42.488Z,12.82
2023-05-10T23:26:10.194Z,12.83
2023-05-10T23:28:37.972Z,12.77
2023-05-10T23:31:05.618Z,12.83
2023-05-10T23:33:36.003Z,12.98
2023-05-10T23:36:03.688Z,12.78
2023-05-10T23:38:31.213Z,12.61
2023-05-10T23:40:58.812Z,12.58
2023-05-10T23:43:26.497Z,12.46
2023-05-10T23:45:56.756Z,12.41
2023-05-10T23:48:24.762Z,12.48
2023-05-10T23:50:52.445Z,12.36
2023-05-10T23:53:20.132Z,12.34
2023-05-10T23:55:47.636Z,12.36
2023-05-10T23:58:15.441Z,12.44
